Time;durP1;ratioP1;P1;durP2;ratioP2;P2;SDS_P1;SDS_P2;PMS_P1;PMS_P2;Temp;Humidity;BMP_temperature;BMP_pressure;BME280_temperature;BME280_humidity;BME280_pressure;Samples;Min_cycle;Max_cycle;Signal;HPM_P1;HPM_P2
2022/01/30 00:01:32;;;;;;;22.27;4.00;;;8.90;99.90;;;;;;7382060;19;107333;-94
2022/01/30 00:04:00;;;;;;;23.42;4.65;;;8.80;99.90;;;;;;7379589;19;108174;-94
2022/01/30 00:06:27;;;;;;;25.60;3.75;;;8.80;99.90;;;;;;7380126;19;109153;-94
2022/01/30 00:08:55;;;;;;;31.73;4.28;;;8.80;99.90;;;;;;7378735;19;107451;-96
2022/01/30 00:11:28;;;;;;;26.15;3.83;;;8.80;99.90;;;;;;7379193;19;107895;-93
2022/01/30 00:13:56;;;;;;;18.45;3.38;;;8.80;99.90;;;;;;7378146;19;109187;-95
2022/01/30 00:16:25;;;;;;;21.10;3.47;;;8.80;99.90;;;;;;7381974;19;107993;-94
2022/01/30 00:19:06;;;;;;;24.08;3.83;;;8.80;99.90;;;;;;7382444;19;109192;-93
2022/01/30 00:21:38;;;;;;;23.00;4.55;;;8.70;99.90;;;;;;7378669;19;108469;-96
2022/01/30 00:24:25;;;;;;;19.08;3.60;;;8.70;99.90;;;;;;7381069;19;111712;-95
2022/01/30 00:26:52;;;;;;;24.17;3.80;;;8.60;99.90;;;;;;7382345;19;111376;-95
2022/01/30 00:29:19;;;;;;;31.20;3.72;;;8.70;99.90;;;;;;7380233;19;107951;-94
2022/01/30 00:31:46;;;;;;;27.15;3.50;;;8.60;99.90;;;;;;7381748;19;111406;-95
2022/01/30 00:34:34;;;;;;;26.10;3.97;;;8.70;99.90;;;;;;7379650;19;111298;-93
2022/01/30 00:37:02;;;;;;;27.38;3.38;;;8.60;99.90;;;;;;7380654;19;107364;-95
2022/01/30 00:39:30;;;;;;;25.05;3.75;;;8.60;99.90;;;;;;7386750;19;108590;-93
2022/01/30 00:41:57;;;;;;;23.98;4.00;;;8.60;99.90;;;;;;7379551;19;107378;-94
2022/01/30 00:44:24;;;;;;;29.17;3.90;;;8.60;99.90;;;;;;7378264;19;107740;-95
2022/01/30 00:46:53;;;;;;;26.80;4.07;;;8.60;99.90;;;;;;7378469;19;109547;-92
2022/01/30 00:49:20;;;;;;;25.08;3.42;;;8.60;99.90;;;;;;7381085;19;107495;-94
2022/01/30 00:51:47;;;;;;;21.95;3.58;;;8.50;99.90;;;;;;7377987;19;108577;-94
2022/01/30 00:54:14;;;;;;;29.10;3.78;;;8.50;99.90;;;;;;7379077;19;110103;-95
2022/01/30 00:56:41;;;;;;;25.60;3.60;;;8.60;99.90;;;;;;7380682;19;107474;-94
2022/01/30 00:59:09;;;;;;;27.75;3.75;;;8.60;99.90;;;;;;7383308;19;109566;-96
2022/01/30 01:01:36;;;;;;;33.03;3.92;;;8.50;99.90;;;;;;7380745;19;108008;-94
2022/01/30 01:04:04;;;;;;;22.95;4.10;;;8.40;99.90;;;;;;7377803;19;108632;-94
2022/01/30 01:06:31;;;;;;;26.02;5.10;;;8.40;99.90;;;;;;7379170;19;107990;-94
2022/01/30 01:09:01;;;;;;;29.88;4.70;;;8.40;99.90;;;;;;7381606;19;107351;-95
2022/01/30 01:11:52;;;;;;;34.10;6.22;;;8.40;99.90;;;;;;7379817;19;108114;-94
2022/01/30 01:25:22;;;;;;;23.63;3.92;;;8.30;99.90;;;;;;7357057;19;108804;-94
2022/01/30 01:27:49;;;;;;;23.00;3.60;;;8.30;99.90;;;;;;7359041;19;108477;-94
2022/01/30 01:30:16;;;;;;;27.83;4.85;;;8.20;99.90;;;;;;7358949;19;111569;-95
2022/01/30 01:32:43;;;;;;;32.47;4.40;;;8.20;99.90;;;;;;7357675;19;108059;-94
2022/01/30 01:35:10;;;;;;;20.40;3.17;;;8.10;99.90;;;;;;7358306;19;108959;-94
2022/01/30 01:37:37;;;;;;;29.33;7.43;;;8.10;99.90;;;;;;7354750;19;108145;-94
2022/01/30 01:40:05;;;;;;;23.90;4.50;;;8.10;99.90;;;;;;7356679;19;108657;-93
2022/01/30 01:42:35;;;;;;;33.42;4.35;;;8.10;99.90;;;;;;7355050;19;109439;-94
2022/01/30 01:45:03;;;;;;;29.77;3.28;;;8.00;99.90;;;;;;7358453;19;108366;-94
2022/01/30 01:47:33;;;;;;;28.45;3.78;;;8.10;99.90;;;;;;7355028;19;108267;-94
2022/01/30 01:50:00;;;;;;;26.50;4.05;;;8.00;99.90;;;;;;7354453;19;110359;-94
2022/01/30 01:52:28;;;;;;;24.25;3.80;;;8.00;99.90;;;;;;7355071;19;108281;-96
2022/01/30 01:54:59;;;;;;;29.83;4.68;;;8.00;99.90;;;;;;7357490;19;108498;-94
2022/01/30 01:57:28;;;;;;;34.92;4.35;;;8.00;99.90;;;;;;7352294;19;108125;-94
2022/01/30 01:59:56;;;;;;;28.65;3.47;;;8.00;99.90;;;;;;7357991;19;108606;-94
2022/01/30 02:02:24;;;;;;;21.85;3.70;;;7.90;99.90;;;;;;7351371;19;108175;-93
2022/01/30 02:04:52;;;;;;;26.92;3.92;;;7.90;99.90;;;;;;7358076;19;108092;-94
2022/01/30 02:10:05;;;;;;;24.30;3.45;;;7.80;99.90;;;;;;7354147;19;108409;-94
2022/01/30 02:12:43;;;;;;;29.25;4.15;;;7.80;99.90;;;;;;7355286;19;110890;-94
2022/01/30 02:26:07;;;;;;;26.77;4.07;;;7.70;99.90;;;;;;7356147;19;108335;-94
2022/01/30 02:28:34;;;;;;;25.48;3.97;;;7.70;99.90;;;;;;7360025;19;108700;-94
2022/01/30 02:31:07;;;;;;;19.02;3.30;;;7.70;99.90;;;;;;7362390;19;108378;-93
2022/01/30 02:33:35;;;;;;;25.88;3.88;;;7.70;99.90;;;;;;7354440;19;108352;-95
2022/01/30 02:36:02;;;;;;;39.08;3.75;;;7.70;99.90;;;;;;7349079;19;109350;-94
2022/01/30 02:38:30;;;;;;;29.05;4.07;;;7.60;99.90;;;;;;7353333;19;111073;-93
2022/01/30 02:40:58;;;;;;;24.15;4.35;;;7.60;99.90;;;;;;7355337;19;108786;-95
2022/01/30 02:43:31;;;;;;;23.13;4.43;;;7.60;99.90;;;;;;7351489;19;110796;-94
2022/01/30 02:46:08;;;;;;;26.80;4.28;;;7.60;99.90;;;;;;7350897;19;108622;-96
2022/01/30 02:48:57;;;;;;;28.92;4.68;;;7.60;99.90;;;;;;7348911;19;109890;-94
2022/01/30 02:51:33;;;;;;;23.02;4.13;;;7.50;99.90;;;;;;7353748;19;108899;-96
2022/01/30 02:54:03;;;;;;;34.30;4.13;;;7.60;99.90;;;;;;7360576;19;108268;-94
2022/01/30 02:56:31;;;;;;;26.17;3.70;;;7.50;99.90;;;;;;7374202;19;109362;-94
2022/01/30 02:58:58;;;;;;;32.63;4.03;;;7.50;99.90;;;;;;7373825;19;109802;-94
2022/01/30 03:01:25;;;;;;;28.90;4.45;;;7.50;99.90;;;;;;7376688;19;108384;-94
2022/01/30 03:03:52;;;;;;;24.20;4.30;;;7.50;99.90;;;;;;7369179;19;108300;-93
2022/01/30 03:06:19;;;;;;;24.50;3.65;;;7.40;99.90;;;;;;7357525;19;108033;-94
2022/01/30 03:08:47;;;;;;;28.40;4.20;;;7.40;99.90;;;;;;7359445;19;108776;-93
2022/01/30 03:11:14;;;;;;;24.23;3.75;;;7.40;99.90;;;;;;7362730;19;110497;-95
2022/01/30 03:13:41;;;;;;;29.17;3.97;;;7.40;99.90;;;;;;7366390;19;107486;-95
2022/01/30 03:16:08;;;;;;;33.65;4.03;;;7.40;99.90;;;;;;7362145;19;109597;-94
2022/01/30 03:18:36;;;;;;;35.25;4.70;;;7.40;99.90;;;;;;7365081;19;108013;-95
2022/01/30 03:21:04;;;;;;;29.25;3.55;;;7.30;99.90;;;;;;7359561;19;108187;-95
2022/01/30 03:23:36;;;;;;;26.50;3.63;;;7.30;99.90;;;;;;7365957;19;110549;-95
2022/01/30 03:26:03;;;;;;;30.80;3.85;;;7.30;99.90;;;;;;7364587;19;108577;-94
2022/01/30 03:28:32;;;;;;;21.42;4.03;;;7.30;99.90;;;;;;7370162;19;108494;-95
2022/01/30 03:31:03;;;;;;;32.73;3.80;;;7.20;99.90;;;;;;7361195;19;109655;-95
2022/01/30 03:33:31;;;;;;;24.43;4.00;;;7.20;99.90;;;;;;7348917;19;108580;-95
2022/01/30 03:35:58;;;;;;;29.48;3.72;;;7.20;99.90;;;;;;7353911;19;108773;-96
2022/01/30 03:38:26;;;;;;;29.40;3.85;;;7.20;99.90;;;;;;7353311;19;108929;-94
2022/01/30 03:40:54;;;;;;;23.47;3.70;;;7.10;99.90;;;;;;7355035;19;109107;-95
2022/01/30 03:43:21;;;;;;;38.67;4.43;;;7.10;99.90;;;;;;7355642;19;109521;-95
2022/01/30 03:45:49;;;;;;;25.20;3.83;;;7.10;99.90;;;;;;7366146;19;108704;-92
2022/01/30 03:48:17;;;;;;;20.70;3.23;;;7.10;99.90;;;;;;7374634;19;108569;-95
2022/01/30 03:50:45;;;;;;;29.80;4.30;;;7.10;99.90;;;;;;7371892;19;109253;-94
2022/01/30 03:53:12;;;;;;;37.97;4.97;;;7.00;99.90;;;;;;7373654;19;108754;-95
2022/01/30 03:55:39;;;;;;;24.83;3.70;;;7.00;99.90;;;;;;7378285;19;108506;-94
2022/01/30 03:58:07;;;;;;;27.13;3.73;;;7.00;99.90;;;;;;7382128;19;111363;-95
2022/01/30 04:00:34;;;;;;;35.87;4.37;;;7.00;99.90;;;;;;7379312;19;108725;-94
2022/01/30 04:03:02;;;;;;;30.50;3.93;;;7.00;99.90;;;;;;7360801;19;109324;-95
2022/01/30 04:05:29;;;;;;;27.53;4.00;;;6.90;99.90;;;;;;7365055;19;107961;-95
2022/01/30 04:08:02;;;;;;;29.57;3.77;;;6.90;99.90;;;;;;7362765;19;107871;-95
2022/01/30 04:10:31;;;;;;;26.93;4.13;;;6.90;99.90;;;;;;7363245;19;112557;-94
2022/01/30 04:12:59;;;;;;;25.37;4.13;;;6.90;99.90;;;;;;7363198;19;107662;-95
2022/01/30 04:15:28;;;;;;;25.73;4.50;;;6.80;99.90;;;;;;7360127;19;108234;-95
2022/01/30 04:17:56;;;;;;;34.58;4.28;;;6.80;99.90;;;;;;7365572;19;108265;-95
2022/01/30 04:20:23;;;;;;;30.50;4.33;;;6.80;99.90;;;;;;7369093;19;109201;-94
2022/01/30 04:22:50;;;;;;;31.10;4.07;;;6.70;99.90;;;;;;7359209;19;111335;-95
2022/01/30 04:25:17;;;;;;;30.15;3.97;;;6.70;99.90;;;;;;7347637;19;108398;-95
2022/01/30 04:27:45;;;;;;;28.70;4.20;;;6.70;99.90;;;;;;7344547;19;112023;-95
2022/01/30 04:30:13;;;;;;;27.63;5.10;;;6.70;99.90;;;;;;7347518;19;110379;-96
2022/01/30 04:32:43;;;;;;;24.60;3.97;;;6.70;99.90;;;;;;7345387;19;109264;-95
2022/01/30 04:35:26;;;;;;;29.53;4.13;;;6.70;99.90;;;;;;7346442;19;111185;-94
2022/01/30 04:55:30;;;;;;;30.33;4.27;;;6.60;99.90;;;;;;7343141;19;108675;-95
2022/01/30 05:08:28;;;;;;;18.23;4.27;;;6.50;99.90;;;;;;7349489;19;110688;-95
2022/01/30 05:10:55;;;;;;;26.23;4.50;;;6.50;99.90;;;;;;7349048;19;111738;-93
2022/01/30 05:13:27;;;;;;;30.07;4.40;;;6.50;99.90;;;;;;7347672;19;112563;-93
2022/01/30 05:15:55;;;;;;;33.60;6.20;;;6.50;99.90;;;;;;7349564;19;109802;-94
2022/01/30 05:18:24;;;;;;;33.40;7.47;;;6.60;99.90;;;;;;7348517;19;109788;-94
2022/01/30 05:20:51;;;;;;;29.93;6.40;;;6.60;99.90;;;;;;7349705;19;113298;-93
2022/01/30 05:23:19;;;;;;;25.83;6.07;;;6.50;99.90;;;;;;7345388;19;109360;-93
2022/01/30 05:25:52;;;;;;;27.57;4.77;;;6.50;99.90;;;;;;7347164;19;112062;-93
2022/01/30 05:28:22;;;;;;;23.40;5.67;;;6.60;99.90;;;;;;7353555;19;112605;-94
2022/01/30 05:30:50;;;;;;;28.87;4.33;;;6.60;99.90;;;;;;7344842;19;112378;-94
2022/01/30 05:33:18;;;;;;;31.67;4.17;;;6.60;99.90;;;;;;7348859;19;112620;-94
2022/01/30 05:35:46;;;;;;;19.27;3.70;;;6.50;99.90;;;;;;7345949;19;110674;-94
2022/01/30 05:38:13;;;;;;;28.53;4.87;;;6.60;99.90;;;;;;7347428;19;109415;-94
2022/01/30 05:40:41;;;;;;;22.03;4.23;;;6.50;99.90;;;;;;7347971;19;110505;-94
2022/01/30 05:43:10;;;;;;;33.13;4.43;;;6.50;99.90;;;;;;7346018;19;110665;-94
2022/01/30 05:45:41;;;;;;;23.23;4.40;;;6.60;99.90;;;;;;7346915;19;109366;-93
2022/01/30 05:48:18;;;;;;;28.33;3.83;;;6.60;99.90;;;;;;7344508;19;112855;-94
2022/01/30 05:50:45;;;;;;;23.33;4.20;;;6.60;99.90;;;;;;7351725;19;108019;-94
2022/01/30 05:53:13;;;;;;;20.70;4.73;;;6.50;99.90;;;;;;7347379;19;111458;-94
2022/01/30 05:55:41;;;;;;;32.67;5.00;;;6.60;99.90;;;;;;7346335;19;110718;-94
2022/01/30 05:58:09;;;;;;;25.67;5.00;;;6.50;99.90;;;;;;7347403;19;111946;-93
2022/01/30 06:00:36;;;;;;;26.70;4.83;;;6.50;99.90;;;;;;7344115;19;111040;-92
2022/01/30 06:03:03;;;;;;;30.23;4.63;;;6.50;99.90;;;;;;7347048;19;110936;-93
2022/01/30 06:05:31;;;;;;;24.93;4.33;;;6.50;99.90;;;;;;7346469;19;112118;-94
2022/01/30 06:08:09;;;;;;;20.07;3.73;;;6.50;99.90;;;;;;7346138;19;110019;-93
2022/01/30 06:10:36;;;;;;;24.73;3.92;;;6.50;99.90;;;;;;7348270;19;111113;-93
2022/01/30 06:13:03;;;;;;;28.13;4.87;;;6.50;99.90;;;;;;7349780;19;111285;-93
2022/01/30 06:15:31;;;;;;;25.40;3.90;;;6.50;99.90;;;;;;7346865;19;110723;-93
2022/01/30 06:17:58;;;;;;;17.97;3.67;;;6.50;99.90;;;;;;7346893;19;112189;-94
2022/01/30 06:20:25;;;;;;;25.63;4.13;;;6.50;99.90;;;;;;7344772;19;113140;-93
2022/01/30 06:22:52;;;;;;;20.87;3.80;;;6.50;99.90;;;;;;7346704;19;110908;-93
2022/01/30 06:25:19;;;;;;;29.50;4.43;;;6.50;99.90;;;;;;7344266;19;111853;-93
2022/01/30 06:27:47;;;;;;;24.37;4.03;;;6.60;99.90;;;;;;7347166;19;113082;-94
2022/01/30 06:30:14;;;;;;;18.67;3.90;;;6.60;99.90;;;;;;7347053;19;110558;-94
2022/01/30 06:32:41;;;;;;;27.77;4.10;;;6.50;99.90;;;;;;7345549;19;112032;-94
2022/01/30 06:35:08;;;;;;;24.30;4.50;;;6.50;99.90;;;;;;7351508;19;110381;-93
2022/01/30 06:37:35;;;;;;;28.03;4.10;;;6.50;99.90;;;;;;7343949;19;108612;-93
2022/01/30 06:40:03;;;;;;;30.13;4.60;;;6.50;99.90;;;;;;7345667;19;113090;-93
2022/01/30 06:42:30;;;;;;;34.63;4.93;;;6.40;99.90;;;;;;7346774;19;110451;-93
2022/01/30 06:45:00;;;;;;;22.03;4.43;;;6.40;99.90;;;;;;7355215;19;111600;-96
2022/01/30 06:47:27;;;;;;;28.27;4.27;;;6.40;99.90;;;;;;7352859;19;112165;-94
2022/01/30 06:49:54;;;;;;;24.93;4.10;;;6.40;99.90;;;;;;7351048;19;110692;-94
2022/01/30 06:52:22;;;;;;;26.47;3.90;;;6.30;99.90;;;;;;7353842;19;109761;-94
2022/01/30 06:54:49;;;;;;;24.63;4.20;;;6.30;99.90;;;;;;7349977;19;112721;-96
2022/01/30 06:57:17;;;;;;;18.80;3.87;;;6.20;99.90;;;;;;7358514;19;110431;-94
2022/01/30 06:59:44;;;;;;;23.13;3.43;;;6.20;99.90;;;;;;7350153;19;111353;-94
2022/01/30 07:02:11;;;;;;;26.33;4.30;;;6.20;99.90;;;;;;7351420;19;110280;-95
2022/01/30 07:04:39;;;;;;;35.93;3.90;;;6.20;99.90;;;;;;7353198;19;111936;-94
2022/01/30 07:07:06;;;;;;;24.07;3.80;;;6.20;99.90;;;;;;7351372;19;111108;-94
2022/01/30 07:09:33;;;;;;;32.33;4.03;;;6.20;99.90;;;;;;7353080;19;110819;-94
2022/01/30 07:12:01;;;;;;;25.43;3.50;;;6.10;99.90;;;;;;7349856;19;112137;-93
2022/01/30 07:14:29;;;;;;;25.10;3.37;;;6.10;99.90;;;;;;7351002;19;111377;-94
2022/01/30 07:16:57;;;;;;;25.50;3.57;;;6.00;99.90;;;;;;7358030;19;110395;-93
2022/01/30 07:19:24;;;;;;;31.10;3.87;;;6.00;99.90;;;;;;7350457;19;112633;-94
2022/01/30 07:21:52;;;;;;;23.70;4.40;;;6.00;99.90;;;;;;7351531;19;111017;-94
2022/01/30 07:24:19;;;;;;;19.53;3.30;;;6.00;99.90;;;;;;7349700;19;111793;-94
2022/01/30 07:32:01;;;;;;;24.20;3.70;;;5.90;99.90;;;;;;7356842;19;107904;-95
2022/01/30 07:34:28;;;;;;;29.63;4.07;;;5.90;99.90;;;;;;7350492;19;109173;-96
2022/01/30 07:36:57;;;;;;;31.70;5.27;;;5.90;99.90;;;;;;7346955;19;108405;-95
2022/01/30 07:39:29;;;;;;;36.47;4.47;;;5.90;99.90;;;;;;7365370;19;109547;-95
2022/01/30 07:41:59;;;;;;;20.93;4.13;;;5.90;99.90;;;;;;7356792;19;108268;-93
2022/01/30 07:44:27;;;;;;;27.33;4.67;;;5.90;99.90;;;;;;7357041;19;111368;-96
2022/01/30 07:46:56;;;;;;;28.37;4.00;;;5.90;99.90;;;;;;7361609;19;109501;-96
2022/01/30 07:49:24;;;;;;;32.93;4.80;;;6.00;99.90;;;;;;7357565;19;108001;-96
2022/01/30 07:51:53;;;;;;;34.60;4.60;;;6.00;99.90;;;;;;7350035;19;108636;-96
2022/01/30 07:54:21;;;;;;;30.03;4.17;;;6.00;99.90;;;;;;7348761;19;108473;-96
2022/01/30 07:56:48;;;;;;;28.47;4.70;;;6.00;99.90;;;;;;7347017;19;109278;-94
2022/01/30 07:59:15;;;;;;;26.23;4.43;;;6.00;99.90;;;;;;7347689;19;109974;-94
2022/01/30 08:01:42;;;;;;;25.27;4.03;;;6.00;99.90;;;;;;7348821;19;109888;-95
2022/01/30 08:04:10;;;;;;;25.23;4.23;;;6.00;99.90;;;;;;7345428;19;108545;-94
2022/01/30 08:06:37;;;;;;;23.53;4.53;;;6.00;99.90;;;;;;7346853;19;109448;-96
2022/01/30 08:09:04;;;;;;;23.40;4.10;;;6.00;99.90;;;;;;7349788;19;108017;-95
2022/01/30 08:11:32;;;;;;;28.47;4.33;;;6.00;99.90;;;;;;7354636;19;108133;-95
2022/01/30 08:13:59;;;;;;;37.83;4.30;;;6.00;99.90;;;;;;7349993;19;110605;-94
2022/01/30 08:16:27;;;;;;;27.70;4.30;;;6.10;99.90;;;;;;7357672;19;108556;-96
2022/01/30 08:18:54;;;;;;;24.70;4.23;;;6.10;99.90;;;;;;7368705;19;109168;-93
2022/01/30 08:21:24;;;;;;;30.83;5.47;;;6.10;99.90;;;;;;7382329;19;111283;-94
2022/01/30 08:23:56;;;;;;;35.93;5.47;;;6.10;99.90;;;;;;7369092;19;109914;-95
2022/01/30 08:26:27;;;;;;;33.17;4.83;;;6.20;99.90;;;;;;7350178;19;112709;-95
2022/01/30 08:29:02;;;;;;;33.33;5.47;;;6.20;99.90;;;;;;7356935;19;108347;-93
2022/01/30 08:31:30;;;;;;;24.60;4.10;;;6.20;99.90;;;;;;7352024;19;110976;-93
2022/01/30 08:33:57;;;;;;;26.40;4.13;;;6.20;99.90;;;;;;7350046;19;113181;-93
2022/01/30 08:36:24;;;;;;;24.27;4.40;;;6.30;99.90;;;;;;7349299;19;110462;-95
2022/01/30 08:38:51;;;;;;;26.70;4.93;;;6.30;99.90;;;;;;7349775;19;109191;-93
2022/01/30 08:41:18;;;;;;;36.33;5.20;;;6.40;99.90;;;;;;7350365;19;112947;-93
2022/01/30 08:43:46;;;;;;;28.60;4.07;;;6.40;99.90;;;;;;7350145;19;109509;-93
2022/01/30 08:46:14;;;;;;;32.27;5.20;;;6.40;99.90;;;;;;7360448;19;109689;-92
2022/01/30 08:48:41;;;;;;;29.90;4.47;;;6.50;99.90;;;;;;7364911;19;108789;-92
2022/01/30 08:51:09;;;;;;;24.60;4.43;;;6.50;99.90;;;;;;7364034;19;110813;-92
2022/01/30 08:53:36;;;;;;;30.27;4.40;;;6.60;99.90;;;;;;7364496;19;109445;-92
2022/01/30 08:56:03;;;;;;;34.23;4.23;;;6.60;99.90;;;;;;7360137;19;110720;-93
2022/01/30 08:58:32;;;;;;;33.97;4.50;;;6.70;99.90;;;;;;7363260;19;110633;-93
2022/01/30 09:01:00;;;;;;;35.67;4.17;;;6.70;99.90;;;;;;7362763;19;111603;-93
2022/01/30 09:03:27;;;;;;;31.43;4.00;;;6.80;99.90;;;;;;7359161;19;108205;-93
2022/01/30 09:05:54;;;;;;;19.53;4.27;;;6.80;99.90;;;;;;7346689;19;111962;-92
2022/01/30 09:08:22;;;;;;;28.83;4.10;;;6.90;99.90;;;;;;7352022;19;112949;-93
2022/01/30 09:10:49;;;;;;;29.37;4.47;;;6.90;99.90;;;;;;7349567;19;112353;-93
2022/01/30 09:13:16;;;;;;;29.77;4.80;;;7.00;99.90;;;;;;7348701;19;109997;-93
2022/01/30 09:15:43;;;;;;;30.33;5.10;;;7.00;99.90;;;;;;7347796;19;110172;-92
2022/01/30 09:18:11;;;;;;;34.70;4.80;;;7.00;99.90;;;;;;7348142;19;111414;-93
2022/01/30 09:20:40;;;;;;;31.67;4.67;;;7.10;99.90;;;;;;7345711;19;110225;-92
2022/01/30 09:23:10;;;;;;;26.07;4.17;;;7.20;99.90;;;;;;7348261;19;110591;-93
2022/01/30 09:25:43;;;;;;;36.17;5.33;;;7.30;99.90;;;;;;7348341;19;112450;-92
2022/01/30 09:28:10;;;;;;;29.80;5.53;;;7.30;99.90;;;;;;7351084;19;110318;-94
2022/01/30 09:30:37;;;;;;;25.20;4.77;;;7.30;99.90;;;;;;7347178;19;112338;-92
2022/01/30 09:33:05;;;;;;;32.93;4.63;;;7.40;99.90;;;;;;7346761;19;111402;-92
2022/01/30 09:35:32;;;;;;;26.42;5.50;;;7.50;99.90;;;;;;7346766;19;109742;-93
2022/01/30 09:37:59;;;;;;;29.43;5.03;;;7.50;99.90;;;;;;7345735;19;112257;-93
2022/01/30 09:40:26;;;;;;;29.70;4.93;;;7.60;99.90;;;;;;7347490;19;113013;-93
2022/01/30 09:42:55;;;;;;;32.40;4.63;;;7.70;99.90;;;;;;7347856;19;109897;-93
2022/01/30 09:45:24;;;;;;;25.13;4.70;;;7.70;99.90;;;;;;7347128;19;110864;-93
2022/01/30 09:47:51;;;;;;;40.30;8.43;;;7.80;99.90;;;;;;7345959;19;113370;-92
2022/01/30 09:50:21;;;;;;;30.83;5.47;;;7.80;99.90;;;;;;7351126;19;108328;-93
2022/01/30 09:52:49;;;;;;;22.90;3.90;;;7.90;99.90;;;;;;7348435;19;109970;-92
2022/01/30 09:55:16;;;;;;;36.87;4.87;;;8.00;99.90;;;;;;7345352;19;109301;-94
2022/01/30 09:57:44;;;;;;;37.72;5.00;;;8.10;99.90;;;;;;7346296;19;110840;-93
2022/01/30 10:00:12;;;;;;;35.10;4.70;;;8.20;99.90;;;;;;7345404;19;110376;-92
2022/01/30 10:02:43;;;;;;;34.67;4.93;;;8.20;99.90;;;;;;7345171;19;110961;-93
2022/01/30 10:05:16;;;;;;;24.98;4.10;;;8.30;99.90;;;;;;7347729;19;111882;-92
2022/01/30 10:07:54;;;;;;;24.27;4.13;;;8.30;99.90;;;;;;7345438;19;109252;-93
2022/01/30 10:10:24;;;;;;;32.58;4.90;;;8.40;99.90;;;;;;7345818;19;109850;-93
2022/01/30 10:13:07;;;;;;;24.15;4.60;;;8.50;99.90;;;;;;7352556;19;109269;-92
2022/01/30 10:15:53;;;;;;;19.70;4.10;;;8.60;99.90;;;;;;7344136;19;109916;-92
2022/01/30 10:18:21;;;;;;;30.27;4.78;;;8.60;99.90;;;;;;7352646;19;110875;-92
2022/01/30 10:20:48;;;;;;;25.77;4.18;;;8.60;99.90;;;;;;7354569;19;109483;-92
2022/01/30 10:23:16;;;;;;;26.50;3.83;;;8.70;99.90;;;;;;7352366;19;108567;-92
2022/01/30 10:25:46;;;;;;;23.67;3.13;;;8.70;99.90;;;;;;7353407;19;112326;-94
2022/01/30 10:28:16;;;;;;;22.13;3.25;;;8.80;99.90;;;;;;7351152;19;112126;-93
2022/01/30 10:30:46;;;;;;;21.05;3.28;;;8.90;99.90;;;;;;7353178;19;109228;-94
2022/01/30 10:33:37;;;;;;;18.55;3.08;;;8.90;99.90;;;;;;7355582;19;112764;-93
2022/01/30 10:36:04;;;;;;;20.55;3.15;;;9.00;99.90;;;;;;7357248;19;111490;-93
2022/01/30 10:38:36;;;;;;;17.48;2.85;;;9.00;99.90;;;;;;7353440;19;111550;-93
2022/01/30 10:44:01;;;;;;;22.48;3.55;;;9.10;99.90;;;;;;7353911;19;109354;-92
2022/01/30 10:46:45;;;;;;;20.40;2.88;;;9.20;99.90;;;;;;7352912;19;112101;-93
2022/01/30 10:49:16;;;;;;;25.35;4.25;;;9.30;99.90;;;;;;7350442;19;110717;-93
2022/01/30 10:51:58;;;;;;;25.13;2.97;;;9.20;99.90;;;;;;7352882;19;110828;-93
2022/01/30 10:54:29;;;;;;;32.25;4.20;;;9.30;99.90;;;;;;7353214;19;110618;-93
2022/01/30 10:57:07;;;;;;;22.50;3.20;;;9.20;99.90;;;;;;7349869;19;110440;-94
2022/01/30 10:59:42;;;;;;;18.75;3.85;;;9.30;99.90;;;;;;7358700;19;108434;-94
2022/01/30 11:02:14;;;;;;;27.48;3.75;;;9.40;99.90;;;;;;7353296;19;109050;-94
2022/01/30 11:04:42;;;;;;;23.75;3.05;;;9.50;99.90;;;;;;7352287;19;110342;-94
2022/01/30 11:07:09;;;;;;;22.42;3.08;;;9.40;99.90;;;;;;7352268;19;113567;-92
2022/01/30 11:09:41;;;;;;;18.05;2.97;;;9.40;99.90;;;;;;7350341;19;112540;-93
2022/01/30 11:12:14;;;;;;;21.48;2.85;;;9.60;99.90;;;;;;7352606;19;109158;-94
2022/01/30 11:17:21;;;;;;;20.52;4.00;;;9.60;99.90;;;;;;7352574;19;109350;-93
2022/01/30 11:19:53;;;;;;;24.35;4.63;;;9.70;99.90;;;;;;7354680;19;110534;-93
2022/01/30 11:22:24;;;;;;;23.52;3.42;;;9.70;99.90;;;;;;7356125;19;109557;-94
2022/01/30 11:25:07;;;;;;;28.45;3.28;;;9.70;99.90;;;;;;7349574;19;109766;-93
2022/01/30 11:27:34;;;;;;;24.27;4.22;;;9.80;99.90;;;;;;7348113;19;112242;-94
2022/01/30 11:30:04;;;;;;;23.70;3.83;;;9.80;99.90;;;;;;7350149;19;112511;-93
2022/01/30 11:32:31;;;;;;;25.08;3.17;;;9.80;99.90;;;;;;7351941;19;110248;-93
2022/01/30 11:35:00;;;;;;;23.88;3.13;;;9.70;99.90;;;;;;7348895;19;112463;-93
2022/01/30 11:37:29;;;;;;;29.15;3.72;;;9.70;99.90;;;;;;7350520;19;111327;-93
2022/01/30 11:39:57;;;;;;;24.55;3.40;;;9.80;99.90;;;;;;7348099;19;108301;-93
2022/01/30 11:42:37;;;;;;;15.32;3.35;;;9.90;99.90;;;;;;7356193;19;110853;-93
2022/01/30 11:45:07;;;;;;;19.60;3.30;;;9.90;99.90;;;;;;7351952;19;110308;-92
2022/01/30 11:47:58;;;;;;;25.05;3.60;;;10.00;99.90;;;;;;7347316;19;109623;-93
2022/01/30 11:50:28;;;;;;;25.63;3.92;;;10.00;99.90;;;;;;7348465;19;111779;-93
2022/01/30 11:52:57;;;;;;;25.08;3.40;;;10.10;99.90;;;;;;7348663;19;108583;-95
2022/01/30 11:55:56;;;;;;;30.35;4.10;;;10.10;99.90;;;;;;7348685;19;109544;-93
2022/01/30 11:58:30;;;;;;;20.35;2.67;;;10.10;99.80;;;;;;7349612;19;113266;-92
2022/01/30 12:00:59;;;;;;;28.98;3.50;;;10.00;99.90;;;;;;7350406;19;108873;-92
2022/01/30 12:03:29;;;;;;;24.65;3.28;;;10.00;99.90;;;;;;7348743;19;110763;-93
2022/01/30 12:06:19;;;;;;;30.70;4.32;;;10.00;99.90;;;;;;7356774;19;110349;-93
2022/01/30 12:08:59;;;;;;;18.83;3.75;;;10.00;99.90;;;;;;7347566;19;112395;-92
2022/01/30 12:11:39;;;;;;;32.20;3.97;;;9.90;99.90;;;;;;7350232;19;110523;-92
2022/01/30 12:14:31;;;;;;;26.55;3.40;;;9.90;99.90;;;;;;7348822;19;111641;-92
2022/01/30 12:17:02;;;;;;;16.65;3.03;;;9.90;99.90;;;;;;7345971;19;112426;-93
2022/01/30 12:19:45;;;;;;;24.13;3.50;;;10.00;99.90;;;;;;7349333;19;111344;-92
2022/01/30 12:22:15;;;;;;;24.70;3.70;;;10.00;99.90;;;;;;7347082;19;110731;-92
2022/01/30 12:24:44;;;;;;;19.88;3.00;;;10.10;99.90;;;;;;7348256;19;109683;-92
2022/01/30 12:27:11;;;;;;;21.48;4.60;;;10.10;99.90;;;;;;7349655;19;110609;-92
2022/01/30 12:29:47;;;;;;;22.55;3.40;;;10.10;99.90;;;;;;7351703;19;110700;-90
2022/01/30 12:32:20;;;;;;;23.98;3.20;;;10.10;99.90;;;;;;7348939;19;113227;-91
2022/01/30 12:34:54;;;;;;;27.50;3.10;;;10.30;99.90;;;;;;7346701;19;111266;-92
2022/01/30 12:37:29;;;;;;;21.00;3.42;;;10.40;99.90;;;;;;7348512;19;109670;-91
2022/01/30 12:39:59;;;;;;;24.13;3.50;;;10.50;99.90;;;;;;7344633;19;110472;-92
2022/01/30 12:42:30;;;;;;;27.60;3.17;;;10.70;99.90;;;;;;7347770;19;110366;-93
2022/01/30 12:45:01;;;;;;;20.67;3.38;;;10.70;99.90;;;;;;7348201;19;112327;-91
2022/01/30 12:47:28;;;;;;;27.40;3.83;;;10.80;99.50;;;;;;7347776;19;109042;-93
2022/01/30 12:49:59;;;;;;;20.25;3.35;;;10.90;99.50;;;;;;7344808;19;110026;-92
2022/01/30 12:52:35;;;;;;;19.60;2.97;;;10.90;99.10;;;;;;7352549;19;109783;-92
2022/01/30 12:55:10;;;;;;;21.63;3.28;;;10.90;99.20;;;;;;7348156;19;109199;-92
2022/01/30 12:57:39;;;;;;;25.10;4.18;;;10.90;98.90;;;;;;7348056;19;112227;-92
2022/01/30 13:00:09;;;;;;;24.83;3.92;;;10.80;99.20;;;;;;7347463;19;112557;-92
2022/01/30 13:02:38;;;;;;;22.08;4.18;;;10.80;99.50;;;;;;7347606;19;111227;-92
2022/01/30 13:05:11;;;;;;;21.98;3.97;;;10.90;99.50;;;;;;7348945;19;112447;-92
2022/01/30 13:07:38;;;;;;;21.58;3.53;;;11.00;99.20;;;;;;7347083;19;112848;-92
2022/01/30 13:10:15;;;;;;;27.08;3.72;;;11.00;99.30;;;;;;7346917;19;109171;-93
2022/01/30 13:12:45;;;;;;;27.77;3.47;;;11.00;99.50;;;;;;7350983;19;113732;-92
2022/01/30 13:15:17;;;;;;;25.38;3.03;;;11.00;99.50;;;;;;7355160;19;112974;-94
2022/01/30 13:17:45;;;;;;;23.55;3.08;;;11.00;99.50;;;;;;7351157;19;112321;-91
2022/01/30 13:20:13;;;;;;;19.85;3.03;;;11.00;98.90;;;;;;7350440;19;112840;-91
2022/01/30 13:22:43;;;;;;;18.00;3.13;;;10.90;98.30;;;;;;7348315;19;110445;-92
2022/01/30 13:25:15;;;;;;;29.50;3.28;;;10.90;98.90;;;;;;7349420;19;112042;-92
2022/01/30 13:27:45;;;;;;;23.27;3.60;;;10.90;98.30;;;;;;7351161;19;111547;-93
2022/01/30 13:30:20;;;;;;;19.00;2.90;;;10.80;97.80;;;;;;7351003;19;110478;-92
2022/01/30 13:32:49;;;;;;;22.48;3.45;;;10.90;98.20;;;;;;7352596;19;111352;-92
2022/01/30 13:35:19;;;;;;;18.92;2.92;;;11.00;98.20;;;;;;7361560;19;111760;-93
2022/01/30 13:37:47;;;;;;;17.75;2.92;;;11.20;97.80;;;;;;7366703;19;107911;-92
2022/01/30 13:40:23;;;;;;;17.40;2.78;;;11.40;97.90;;;;;;7361851;19;109700;-92
2022/01/30 13:48:05;;;;;;;22.77;3.45;;;12.00;96.80;;;;;;7362553;19;111285;-92
2022/01/30 13:50:43;;;;;;;21.23;3.65;;;12.10;97.00;;;;;;7361001;19;108813;-92
2022/01/30 13:53:14;;;;;;;21.25;3.30;;;12.10;96.40;;;;;;7360757;19;109841;-91
2022/01/30 13:56:05;;;;;;;27.13;3.08;;;12.00;96.80;;;;;;7354263;19;111456;-95
2022/01/30 13:58:41;;;;;;;18.02;2.78;;;12.10;96.80;;;;;;7355115;19;111080;-95